Terminal Aerodrome Forecast
Issued by NWS Grand Forks, ND

Home | Current Version | Previous Version | Text Only | Print | Product List | Glossary On
Versions: 1 2 3 4 5 6 7 8 9 10 11 12 13 14 15 16
736
FTUS43 KFGF 231130 AAA
TAFGFK
TAF AMD
KGFK 231130Z 2312/2412 33011KT P6SM BKN015
     FM231500 34012KT P6SM BKN010
     FM232000 01010KT P6SM BKN035
     FM240300 02008KT P6SM VCSH OVC045
     FM240600 01010KT 5SM -RA OVC007=

USA.gov is the U.S. government's official web portal to all federal, state and local government web resources and services.